sensor_id;sensor_type;location;lat;lon;timestamp;P1;durP1;ratioP1;P2;durP2;ratioP2
27833;SDS011;15200;50.570;7.244;2023-08-01T00:01:33;2.50;;;1.80;;
27833;SDS011;15200;50.570;7.244;2023-08-01T00:04:00;2.37;;;1.77;;
27833;SDS011;15200;50.570;7.244;2023-08-01T00:06:27;2.83;;;1.95;;
27833;SDS011;15200;50.570;7.244;2023-08-01T00:08:55;6.15;;;3.20;;
27833;SDS011;15200;50.570;7.244;2023-08-01T00:11:22;6.62;;;2.83;;
27833;SDS011;15200;50.570;7.244;2023-08-01T00:13:49;3.87;;;3.12;;
27833;SDS011;15200;50.570;7.244;2023-08-01T00:16:16;4.70;;;3.52;;
27833;SDS011;15200;50.570;7.244;2023-08-01T00:18:44;3.05;;;2.30;;
27833;SDS011;15200;50.570;7.244;2023-08-01T00:21:11;3.67;;;2.42;;
27833;SDS011;15200;50.570;7.244;2023-08-01T00:23:38;7.28;;;2.87;;
27833;SDS011;15200;50.570;7.244;2023-08-01T00:26:06;5.90;;;2.77;;
27833;SDS011;15200;50.570;7.244;2023-08-01T00:28:33;5.55;;;2.65;;
27833;SDS011;15200;50.570;7.244;2023-08-01T00:31:07;4.55;;;2.70;;
27833;SDS011;15200;50.570;7.244;2023-08-01T00:33:37;3.83;;;2.70;;
27833;SDS011;15200;50.570;7.244;2023-08-01T00:36:05;5.53;;;2.08;;
27833;SDS011;15200;50.570;7.244;2023-08-01T00:38:36;5.65;;;2.40;;
27833;SDS011;15200;50.570;7.244;2023-08-01T00:41:04;2.65;;;2.05;;
27833;SDS011;15200;50.570;7.244;2023-08-01T00:43:31;3.77;;;2.20;;
27833;SDS011;15200;50.570;7.244;2023-08-01T00:45:59;3.62;;;2.40;;
27833;SDS011;15200;50.570;7.244;2023-08-01T00:48:30;4.10;;;2.10;;
27833;SDS011;15200;50.570;7.244;2023-08-01T00:50:58;3.92;;;2.30;;
27833;SDS011;15200;50.570;7.244;2023-08-01T00:53:26;3.37;;;2.22;;
27833;SDS011;15200;50.570;7.244;2023-08-01T00:55:54;4.15;;;1.90;;
27833;SDS011;15200;50.570;7.244;2023-08-01T00:58:22;3.60;;;1.82;;
27833;SDS011;15200;50.570;7.244;2023-08-01T01:00:49;1.50;;;1.35;;
27833;SDS011;15200;50.570;7.244;2023-08-01T01:03:16;2.45;;;1.50;;
27833;SDS011;15200;50.570;7.244;2023-08-01T01:05:49;3.83;;;1.60;;
27833;SDS011;15200;50.570;7.244;2023-08-01T01:08:13;2.37;;;1.52;;
27833;SDS011;15200;50.570;7.244;2023-08-01T01:10:40;2.55;;;1.45;;
27833;SDS011;15200;50.570;7.244;2023-08-01T01:13:08;2.33;;;1.45;;
27833;SDS011;15200;50.570;7.244;2023-08-01T01:15:35;3.60;;;1.50;;
27833;SDS011;15200;50.570;7.244;2023-08-01T01:18:02;3.02;;;1.40;;
27833;SDS011;15200;50.570;7.244;2023-08-01T01:20:34;1.57;;;1.22;;
27833;SDS011;15200;50.570;7.244;2023-08-01T01:23:03;3.25;;;1.35;;
27833;SDS011;15200;50.570;7.244;2023-08-01T01:25:30;1.50;;;1.17;;
27833;SDS011;15200;50.570;7.244;2023-08-01T01:27:58;2.42;;;1.32;;
27833;SDS011;15200;50.570;7.244;2023-08-01T01:30:26;4.70;;;1.50;;
27833;SDS011;15200;50.570;7.244;2023-08-01T01:32:54;5.85;;;1.65;;
27833;SDS011;15200;50.570;7.244;2023-08-01T01:35:21;1.77;;;1.37;;
27833;SDS011;15200;50.570;7.244;2023-08-01T01:37:48;2.22;;;1.65;;
27833;SDS011;15200;50.570;7.244;2023-08-01T01:40:16;2.98;;;1.57;;
27833;SDS011;15200;50.570;7.244;2023-08-01T01:42:43;1.60;;;1.42;;
27833;SDS011;15200;50.570;7.244;2023-08-01T01:45:11;3.10;;;1.47;;
27833;SDS011;15200;50.570;7.244;2023-08-01T01:47:38;2.52;;;1.62;;
27833;SDS011;15200;50.570;7.244;2023-08-01T01:50:06;1.85;;;1.40;;
27833;SDS011;15200;50.570;7.244;2023-08-01T01:52:33;6.35;;;1.47;;
27833;SDS011;15200;50.570;7.244;2023-08-01T01:55:00;4.58;;;1.70;;
27833;SDS011;15200;50.570;7.244;2023-08-01T01:57:28;2.58;;;1.37;;
27833;SDS011;15200;50.570;7.244;2023-08-01T01:59:55;2.02;;;1.15;;
27833;SDS011;15200;50.570;7.244;2023-08-01T02:02:22;1.52;;;1.00;;
27833;SDS011;15200;50.570;7.244;2023-08-01T02:04:50;1.42;;;1.00;;
27833;SDS011;15200;50.570;7.244;2023-08-01T02:07:17;3.50;;;0.95;;
27833;SDS011;15200;50.570;7.244;2023-08-01T02:09:44;2.77;;;0.80;;
27833;SDS011;15200;50.570;7.244;2023-08-01T02:12:12;3.02;;;1.20;;
27833;SDS011;15200;50.570;7.244;2023-08-01T02:14:42;4.42;;;1.47;;
27833;SDS011;15200;50.570;7.244;2023-08-01T02:17:10;3.37;;;1.00;;
27833;SDS011;15200;50.570;7.244;2023-08-01T02:19:37;2.25;;;1.10;;
27833;SDS011;15200;50.570;7.244;2023-08-01T02:22:04;2.35;;;0.80;;
27833;SDS011;15200;50.570;7.244;2023-08-01T02:24:32;1.87;;;0.98;;
27833;SDS011;15200;50.570;7.244;2023-08-01T02:26:59;4.97;;;0.80;;
27833;SDS011;15200;50.570;7.244;2023-08-01T02:29:27;3.17;;;1.10;;
27833;SDS011;15200;50.570;7.244;2023-08-01T02:31:55;1.17;;;0.78;;
27833;SDS011;15200;50.570;7.244;2023-08-01T02:34:22;1.87;;;0.47;;
27833;SDS011;15200;50.570;7.244;2023-08-01T02:36:49;2.52;;;0.57;;
27833;SDS011;15200;50.570;7.244;2023-08-01T02:39:17;2.33;;;0.60;;
27833;SDS011;15200;50.570;7.244;2023-08-01T02:41:44;0.78;;;0.60;;
27833;SDS011;15200;50.570;7.244;2023-08-01T02:44:11;2.10;;;0.60;;
27833;SDS011;15200;50.570;7.244;2023-08-01T02:46:39;3.08;;;0.70;;
27833;SDS011;15200;50.570;7.244;2023-08-01T02:49:06;1.10;;;0.57;;
27833;SDS011;15200;50.570;7.244;2023-08-01T02:51:34;1.47;;;0.70;;
27833;SDS011;15200;50.570;7.244;2023-08-01T02:54:01;1.07;;;0.60;;
27833;SDS011;15200;50.570;7.244;2023-08-01T02:56:28;0.33;;;0.33;;
27833;SDS011;15200;50.570;7.244;2023-08-01T02:58:55;2.77;;;0.50;;
27833;SDS011;15200;50.570;7.244;2023-08-01T03:01:23;2.25;;;0.45;;
27833;SDS011;15200;50.570;7.244;2023-08-01T03:03:50;2.33;;;0.50;;
27833;SDS011;15200;50.570;7.244;2023-08-01T03:06:18;1.40;;;0.40;;
27833;SDS011;15200;50.570;7.244;2023-08-01T03:08:45;1.20;;;0.20;;
27833;SDS011;15200;50.570;7.244;2023-08-01T03:11:13;0.90;;;0.40;;
27833;SDS011;15200;50.570;7.244;2023-08-01T03:13:41;2.40;;;0.75;;
27833;SDS011;15200;50.570;7.244;2023-08-01T03:16:08;0.20;;;0.20;;
27833;SDS011;15200;50.570;7.244;2023-08-01T03:18:36;1.00;;;0.17;;
27833;SDS011;15200;50.570;7.244;2023-08-01T03:21:03;1.10;;;0.20;;
27833;SDS011;15200;50.570;7.244;2023-08-01T03:23:31;3.62;;;0.50;;
27833;SDS011;15200;50.570;7.244;2023-08-01T03:25:58;1.22;;;0.30;;
27833;SDS011;15200;50.570;7.244;2023-08-01T03:28:25;0.68;;;0.60;;
27833;SDS011;15200;50.570;7.244;2023-08-01T03:30:53;4.50;;;0.40;;
27833;SDS011;15200;50.570;7.244;2023-08-01T03:33:20;1.75;;;0.30;;
27833;SDS011;15200;50.570;7.244;2023-08-01T03:35:48;1.22;;;0.47;;
27833;SDS011;15200;50.570;7.244;2023-08-01T03:38:15;5.67;;;0.40;;
27833;SDS011;15200;50.570;7.244;2023-08-01T03:40:42;2.20;;;0.70;;
27833;SDS011;15200;50.570;7.244;2023-08-01T03:43:10;2.17;;;0.37;;
27833;SDS011;15200;50.570;7.244;2023-08-01T03:45:37;0.30;;;0.30;;
27833;SDS011;15200;50.570;7.244;2023-08-01T03:48:04;4.25;;;0.50;;
27833;SDS011;15200;50.570;7.244;2023-08-01T03:50:32;3.20;;;0.53;;
27833;SDS011;15200;50.570;7.244;2023-08-01T03:52:59;1.37;;;0.50;;
27833;SDS011;15200;50.570;7.244;2023-08-01T03:55:26;0.90;;;0.82;;
27833;SDS011;15200;50.570;7.244;2023-08-01T03:57:53;0.75;;;0.60;;
27833;SDS011;15200;50.570;7.244;2023-08-01T04:00:21;4.42;;;0.50;;
27833;SDS011;15200;50.570;7.244;2023-08-01T04:02:48;3.45;;;0.53;;
27833;SDS011;15200;50.570;7.244;2023-08-01T04:05:15;3.15;;;0.68;;
27833;SDS011;15200;50.570;7.244;2023-08-01T04:07:43;0.70;;;0.70;;
27833;SDS011;15200;50.570;7.244;2023-08-01T04:10:10;1.60;;;0.72;;
27833;SDS011;15200;50.570;7.244;2023-08-01T04:12:38;1.45;;;0.78;;
27833;SDS011;15200;50.570;7.244;2023-08-01T04:15:05;2.17;;;0.68;;
27833;SDS011;15200;50.570;7.244;2023-08-01T04:17:32;0.90;;;0.62;;
27833;SDS011;15200;50.570;7.244;2023-08-01T04:20:00;2.47;;;0.80;;
27833;SDS011;15200;50.570;7.244;2023-08-01T04:22:27;3.40;;;0.90;;
27833;SDS011;15200;50.570;7.244;2023-08-01T04:24:54;2.37;;;0.68;;
27833;SDS011;15200;50.570;7.244;2023-08-01T04:27:22;2.22;;;0.85;;
27833;SDS011;15200;50.570;7.244;2023-08-01T04:29:49;1.82;;;0.70;;
27833;SDS011;15200;50.570;7.244;2023-08-01T04:32:16;1.12;;;0.88;;
27833;SDS011;15200;50.570;7.244;2023-08-01T04:34:44;2.77;;;0.95;;
27833;SDS011;15200;50.570;7.244;2023-08-01T04:37:11;1.52;;;0.90;;
27833;SDS011;15200;50.570;7.244;2023-08-01T04:39:38;1.15;;;0.80;;
27833;SDS011;15200;50.570;7.244;2023-08-01T04:42:06;0.75;;;0.75;;
27833;SDS011;15200;50.570;7.244;2023-08-01T04:44:33;4.03;;;1.00;;
27833;SDS011;15200;50.570;7.244;2023-08-01T04:47:00;1.07;;;0.62;;
27833;SDS011;15200;50.570;7.244;2023-08-01T04:49:28;0.98;;;0.90;;
27833;SDS011;15200;50.570;7.244;2023-08-01T04:51:55;0.82;;;0.75;;
27833;SDS011;15200;50.570;7.244;2023-08-01T04:54:22;0.70;;;0.70;;
27833;SDS011;15200;50.570;7.244;2023-08-01T04:56:50;2.25;;;0.72;;
27833;SDS011;15200;50.570;7.244;2023-08-01T04:59:17;1.20;;;0.88;;
27833;SDS011;15200;50.570;7.244;2023-08-01T05:01:44;1.15;;;0.70;;
27833;SDS011;15200;50.570;7.244;2023-08-01T05:04:12;1.05;;;0.80;;
27833;SDS011;15200;50.570;7.244;2023-08-01T05:06:39;3.35;;;0.60;;
27833;SDS011;15200;50.570;7.244;2023-08-01T05:09:06;1.87;;;0.90;;
27833;SDS011;15200;50.570;7.244;2023-08-01T05:11:34;3.17;;;0.93;;
27833;SDS011;15200;50.570;7.244;2023-08-01T05:14:01;2.98;;;0.90;;
27833;SDS011;15200;50.570;7.244;2023-08-01T05:16:28;1.80;;;0.98;;
27833;SDS011;15200;50.570;7.244;2023-08-01T05:18:55;1.42;;;0.80;;
27833;SDS011;15200;50.570;7.244;2023-08-01T05:21:23;2.87;;;0.82;;
27833;SDS011;15200;50.570;7.244;2023-08-01T05:23:50;1.02;;;0.80;;
27833;SDS011;15200;50.570;7.244;2023-08-01T05:26:17;2.02;;;1.00;;
27833;SDS011;15200;50.570;7.244;2023-08-01T05:28:45;1.82;;;1.00;;
27833;SDS011;15200;50.570;7.244;2023-08-01T05:31:12;2.75;;;0.80;;
27833;SDS011;15200;50.570;7.244;2023-08-01T05:33:39;5.40;;;1.07;;
27833;SDS011;15200;50.570;7.244;2023-08-01T05:36:07;1.80;;;0.90;;
27833;SDS011;15200;50.570;7.244;2023-08-01T05:38:34;1.35;;;0.90;;
27833;SDS011;15200;50.570;7.244;2023-08-01T05:41:01;2.35;;;1.07;;
27833;SDS011;15200;50.570;7.244;2023-08-01T05:43:29;2.25;;;1.20;;
27833;SDS011;15200;50.570;7.244;2023-08-01T05:45:56;1.12;;;0.90;;
27833;SDS011;15200;50.570;7.244;2023-08-01T05:48:23;2.08;;;0.93;;
27833;SDS011;15200;50.570;7.244;2023-08-01T05:50:51;3.15;;;0.82;;
27833;SDS011;15200;50.570;7.244;2023-08-01T05:53:19;2.55;;;1.00;;
27833;SDS011;15200;50.570;7.244;2023-08-01T05:55:47;3.08;;;1.20;;
27833;SDS011;15200;50.570;7.244;2023-08-01T05:58:14;4.22;;;1.20;;
27833;SDS011;15200;50.570;7.244;2023-08-01T06:00:41;3.85;;;1.25;;
27833;SDS011;15200;50.570;7.244;2023-08-01T06:03:08;2.22;;;1.40;;
27833;SDS011;15200;50.570;7.244;2023-08-01T06:05:36;3.67;;;1.30;;
27833;SDS011;15200;50.570;7.244;2023-08-01T06:08:05;3.98;;;1.32;;
27833;SDS011;15200;50.570;7.244;2023-08-01T06:10:33;4.10;;;1.42;;
27833;SDS011;15200;50.570;7.244;2023-08-01T06:13:00;6.50;;;1.40;;
27833;SDS011;15200;50.570;7.244;2023-08-01T06:15:27;2.00;;;1.37;;
27833;SDS011;15200;50.570;7.244;2023-08-01T06:17:54;6.15;;;1.85;;
27833;SDS011;15200;50.570;7.244;2023-08-01T06:20:22;2.30;;;1.20;;
27833;SDS011;15200;50.570;7.244;2023-08-01T06:22:49;3.45;;;1.20;;
27833;SDS011;15200;50.570;7.244;2023-08-01T06:25:16;2.70;;;1.00;;
27833;SDS011;15200;50.570;7.244;2023-08-01T06:27:45;2.83;;;1.32;;
27833;SDS011;15200;50.570;7.244;2023-08-01T06:30:12;2.17;;;1.15;;
27833;SDS011;15200;50.570;7.244;2023-08-01T06:32:39;2.90;;;1.25;;
27833;SDS011;15200;50.570;7.244;2023-08-01T06:35:07;1.52;;;1.25;;
27833;SDS011;15200;50.570;7.244;2023-08-01T06:37:34;4.58;;;1.65;;
27833;SDS011;15200;50.570;7.244;2023-08-01T06:40:01;3.52;;;1.40;;
27833;SDS011;15200;50.570;7.244;2023-08-01T06:42:29;2.55;;;1.10;;
27833;SDS011;15200;50.570;7.244;2023-08-01T06:44:56;3.67;;;1.40;;
27833;SDS011;15200;50.570;7.244;2023-08-01T06:47:24;3.98;;;1.47;;
27833;SDS011;15200;50.570;7.244;2023-08-01T06:49:51;2.90;;;1.50;;
27833;SDS011;15200;50.570;7.244;2023-08-01T06:52:18;3.58;;;1.60;;
27833;SDS011;15200;50.570;7.244;2023-08-01T06:54:46;1.98;;;1.60;;
27833;SDS011;15200;50.570;7.244;2023-08-01T06:57:13;3.17;;;1.67;;
27833;SDS011;15200;50.570;7.244;2023-08-01T06:59:41;4.10;;;1.42;;
27833;SDS011;15200;50.570;7.244;2023-08-01T07:04:56;3.15;;;1.30;;
27833;SDS011;15200;50.570;7.244;2023-08-01T07:07:23;4.30;;;1.90;;
27833;SDS011;15200;50.570;7.244;2023-08-01T07:09:50;2.52;;;1.72;;
27833;SDS011;15200;50.570;7.244;2023-08-01T07:12:18;3.72;;;2.15;;
27833;SDS011;15200;50.570;7.244;2023-08-01T07:14:45;4.15;;;1.77;;
27833;SDS011;15200;50.570;7.244;2023-08-01T07:17:12;2.80;;;1.80;;
27833;SDS011;15200;50.570;7.244;2023-08-01T07:19:40;3.33;;;2.10;;
27833;SDS011;15200;50.570;7.244;2023-08-01T07:22:07;1.98;;;1.72;;
27833;SDS011;15200;50.570;7.244;2023-08-01T07:24:34;6.22;;;2.10;;
27833;SDS011;15200;50.570;7.244;2023-08-01T07:27:02;3.90;;;2.10;;
27833;SDS011;15200;50.570;7.244;2023-08-01T07:29:29;2.55;;;2.00;;
27833;SDS011;15200;50.570;7.244;2023-08-01T07:31:56;5.95;;;2.20;;
27833;SDS011;15200;50.570;7.244;2023-08-01T07:34:24;3.60;;;1.90;;
27833;SDS011;15200;50.570;7.244;2023-08-01T07:36:51;2.80;;;1.98;;
27833;SDS011;15200;50.570;7.244;2023-08-01T07:39:18;5.28;;;2.20;;
27833;SDS011;15200;50.570;7.244;2023-08-01T07:41:46;6.22;;;2.45;;
27833;SDS011;15200;50.570;7.244;2023-08-01T07:44:13;3.33;;;2.12;;
27833;SDS011;15200;50.570;7.244;2023-08-01T07:46:40;5.78;;;2.60;;
27833;SDS011;15200;50.570;7.244;2023-08-01T07:49:07;4.25;;;2.22;;
27833;SDS011;15200;50.570;7.244;2023-08-01T07:51:35;6.42;;;2.47;;
27833;SDS011;15200;50.570;7.244;2023-08-01T07:54:03;2.50;;;2.30;;
27833;SDS011;15200;50.570;7.244;2023-08-01T07:56:30;6.03;;;3.08;;
27833;SDS011;15200;50.570;7.244;2023-08-01T07:58:57;3.83;;;2.00;;
27833;SDS011;15200;50.570;7.244;2023-08-01T08:01:25;4.35;;;2.30;;
27833;SDS011;15200;50.570;7.244;2023-08-01T08:03:52;3.83;;;2.50;;
27833;SDS011;15200;50.570;7.244;2023-08-01T08:06:19;3.47;;;2.52;;
27833;SDS011;15200;50.570;7.244;2023-08-01T08:08:48;4.42;;;2.40;;
27833;SDS011;15200;50.570;7.244;2023-08-01T08:11:17;4.65;;;2.50;;
27833;SDS011;15200;50.570;7.244;2023-08-01T08:13:44;4.30;;;2.20;;
27833;SDS011;15200;50.570;7.244;2023-08-01T08:16:11;3.25;;;2.12;;
27833;SDS011;15200;50.570;7.244;2023-08-01T08:18:39;5.70;;;2.62;;
27833;SDS011;15200;50.570;7.244;2023-08-01T08:21:06;4.58;;;2.55;;
27833;SDS011;15200;50.570;7.244;2023-08-01T08:23:33;3.58;;;2.33;;
27833;SDS011;15200;50.570;7.244;2023-08-01T08:26:01;5.67;;;2.45;;
27833;SDS011;15200;50.570;7.244;2023-08-01T08:28:29;4.58;;;2.25;;
27833;SDS011;15200;50.570;7.244;2023-08-01T08:30:57;6.50;;;2.67;;
27833;SDS011;15200;50.570;7.244;2023-08-01T08:33:24;3.90;;;2.37;;
27833;SDS011;15200;50.570;7.244;2023-08-01T08:35:52;3.65;;;2.33;;
27833;SDS011;15200;50.570;7.244;2023-08-01T08:38:19;5.35;;;2.47;;
27833;SDS011;15200;50.570;7.244;2023-08-01T08:40:57;4.47;;;2.60;;
27833;SDS011;15200;50.570;7.244;2023-08-01T08:43:20;3.98;;;2.47;;
27833;SDS011;15200;50.570;7.244;2023-08-01T08:45:47;3.87;;;2.70;;
27833;SDS011;15200;50.570;7.244;2023-08-01T08:48:17;4.50;;;2.70;;
27833;SDS011;15200;50.570;7.244;2023-08-01T08:50:46;5.00;;;2.85;;
27833;SDS011;15200;50.570;7.244;2023-08-01T08:53:13;4.65;;;2.42;;
27833;SDS011;15200;50.570;7.244;2023-08-01T08:55:41;3.55;;;2.37;;
27833;SDS011;15200;50.570;7.244;2023-08-01T08:58:09;2.90;;;2.35;;
27833;SDS011;15200;50.570;7.244;2023-08-01T09:00:37;2.92;;;1.87;;
27833;SDS011;15200;50.570;7.244;2023-08-01T09:03:04;5.53;;;2.40;;
27833;SDS011;15200;50.570;7.244;2023-08-01T09:05:39;3.62;;;2.15;;
27833;SDS011;15200;50.570;7.244;2023-08-01T09:08:01;4.15;;;2.55;;
27833;SDS011;15200;50.570;7.244;2023-08-01T09:10:30;6.60;;;2.47;;
27833;SDS011;15200;50.570;7.244;2023-08-01T09:12:58;4.20;;;2.55;;
27833;SDS011;15200;50.570;7.244;2023-08-01T09:15:25;3.70;;;2.22;;
27833;SDS011;15200;50.570;7.244;2023-08-01T09:17:55;5.53;;;2.37;;
27833;SDS011;15200;50.570;7.244;2023-08-01T09:20:29;4.40;;;1.92;;
27833;SDS011;15200;50.570;7.244;2023-08-01T09:22:57;2.50;;;1.77;;
27833;SDS011;15200;50.570;7.244;2023-08-01T09:25:34;4.70;;;2.30;;
27833;SDS011;15200;50.570;7.244;2023-08-01T09:27:53;2.62;;;1.70;;
27833;SDS011;15200;50.570;7.244;2023-08-01T09:30:20;3.52;;;1.98;;
27833;SDS011;15200;50.570;7.244;2023-08-01T09:32:54;4.87;;;1.95;;
27833;SDS011;15200;50.570;7.244;2023-08-01T09:35:22;5.00;;;2.02;;
27833;SDS011;15200;50.570;7.244;2023-08-01T09:37:49;2.90;;;1.65;;
27833;SDS011;15200;50.570;7.244;2023-08-01T09:40:19;3.62;;;1.72;;
27833;SDS011;15200;50.570;7.244;2023-08-01T09:42:46;2.60;;;1.52;;
27833;SDS011;15200;50.570;7.244;2023-08-01T09:45:14;4.60;;;2.00;;
27833;SDS011;15200;50.570;7.244;2023-08-01T09:47:42;2.75;;;1.67;;
27833;SDS011;15200;50.570;7.244;2023-08-01T09:50:11;3.87;;;1.90;;
27833;SDS011;15200;50.570;7.244;2023-08-01T09:52:39;5.35;;;2.35;;
27833;SDS011;15200;50.570;7.244;2023-08-01T09:55:06;5.70;;;1.92;;
27833;SDS011;15200;50.570;7.244;2023-08-01T09:57:34;6.20;;;2.60;;
27833;SDS011;15200;50.570;7.244;2023-08-01T10:00:03;2.83;;;1.85;;
27833;SDS011;15200;50.570;7.244;2023-08-01T10:02:31;3.33;;;2.15;;
27833;SDS011;15200;50.570;7.244;2023-08-01T10:04:59;4.20;;;1.50;;
27833;SDS011;15200;50.570;7.244;2023-08-01T10:07:28;1.77;;;1.30;;
27833;SDS011;15200;50.570;7.244;2023-08-01T10:09:57;3.00;;;1.40;;
27833;SDS011;15200;50.570;7.244;2023-08-01T10:12:25;3.00;;;1.45;;
27833;SDS011;15200;50.570;7.244;2023-08-01T10:14:53;3.30;;;1.65;;
27833;SDS011;15200;50.570;7.244;2023-08-01T10:17:21;2.72;;;1.40;;
27833;SDS011;15200;50.570;7.244;2023-08-01T10:19:49;4.22;;;1.75;;
27833;SDS011;15200;50.570;7.244;2023-08-01T10:22:18;7.30;;;2.25;;
27833;SDS011;15200;50.570;7.244;2023-08-01T10:24:45;4.20;;;1.90;;
27833;SDS011;15200;50.570;7.244;2023-08-01T10:27:14;3.95;;;2.02;;
27833;SDS011;15200;50.570;7.244;2023-08-01T10:29:42;3.55;;;2.10;;
27833;SDS011;15200;50.570;7.244;2023-08-01T10:32:10;3.62;;;1.60;;
27833;SDS011;15200;50.570;7.244;2023-08-01T10:34:37;5.60;;;1.87;;
27833;SDS011;15200;50.570;7.244;2023-08-01T10:37:05;4.65;;;2.00;;
27833;SDS011;15200;50.570;7.244;2023-08-01T10:39:32;3.25;;;1.50;;
27833;SDS011;15200;50.570;7.244;2023-08-01T10:42:00;2.00;;;1.57;;
27833;SDS011;15200;50.570;7.244;2023-08-01T10:44:28;5.60;;;1.80;;
27833;SDS011;15200;50.570;7.244;2023-08-01T10:47:00;5.22;;;1.60;;
27833;SDS011;15200;50.570;7.244;2023-08-01T10:49:35;4.55;;;1.75;;
27833;SDS011;15200;50.570;7.244;2023-08-01T10:52:03;1.72;;;1.20;;
27833;SDS011;15200;50.570;7.244;2023-08-01T10:54:30;1.80;;;1.07;;
27833;SDS011;15200;50.570;7.244;2023-08-01T10:56:59;1.65;;;1.17;;
27833;SDS011;15200;50.570;7.244;2023-08-01T10:59:28;4.70;;;1.42;;
27833;SDS011;15200;50.570;7.244;2023-08-01T11:01:57;3.45;;;1.55;;
27833;SDS011;15200;50.570;7.244;2023-08-01T11:04:24;3.47;;;1.50;;
27833;SDS011;15200;50.570;7.244;2023-08-01T11:06:53;2.12;;;1.22;;
27833;SDS011;15200;50.570;7.244;2023-08-01T11:09:27;1.55;;;1.32;;
27833;SDS011;15200;50.570;7.244;2023-08-01T11:11:57;2.47;;;1.30;;
27833;SDS011;15200;50.570;7.244;2023-08-01T11:14:25;1.45;;;0.90;;
27833;SDS011;15200;50.570;7.244;2023-08-01T11:16:56;2.90;;;1.42;;
27833;SDS011;15200;50.570;7.244;2023-08-01T11:19:25;2.37;;;1.50;;
27833;SDS011;15200;50.570;7.244;2023-08-01T11:21:53;2.10;;;1.37;;
27833;SDS011;15200;50.570;7.244;2023-08-01T11:24:22;4.17;;;1.30;;
27833;SDS011;15200;50.570;7.244;2023-08-01T11:26:50;4.28;;;1.40;;
27833;SDS011;15200;50.570;7.244;2023-08-01T11:29:18;3.40;;;1.47;;
27833;SDS011;15200;50.570;7.244;2023-08-01T11:31:59;3.37;;;1.45;;
27833;SDS011;15200;50.570;7.244;2023-08-01T11:34:23;2.08;;;1.15;;
27833;SDS011;15200;50.570;7.244;2023-08-01T11:36:50;2.83;;;1.25;;
27833;SDS011;15200;50.570;7.244;2023-08-01T11:39:18;3.87;;;1.42;;
27833;SDS011;15200;50.570;7.244;2023-08-01T11:41:45;8.05;;;1.75;;
27833;SDS011;15200;50.570;7.244;2023-08-01T11:44:12;2.55;;;1.25;;
27833;SDS011;15200;50.570;7.244;2023-08-01T11:46:40;4.30;;;1.67;;
27833;SDS011;15200;50.570;7.244;2023-08-01T11:49:07;4.37;;;1.90;;
27833;SDS011;15200;50.570;7.244;2023-08-01T11:51:38;3.30;;;1.30;;
27833;SDS011;15200;50.570;7.244;2023-08-01T11:54:06;3.12;;;1.30;;
27833;SDS011;15200;50.570;7.244;2023-08-01T11:56:35;4.12;;;1.57;;
27833;SDS011;15200;50.570;7.244;2023-08-01T11:59:09;2.25;;;1.50;;
27833;SDS011;15200;50.570;7.244;2023-08-01T12:01:43;2.00;;;1.20;;
27833;SDS011;15200;50.570;7.244;2023-08-01T12:04:11;4.72;;;1.40;;
27833;SDS011;15200;50.570;7.244;2023-08-01T12:06:38;6.25;;;1.42;;
27833;SDS011;15200;50.570;7.244;2023-08-01T12:09:10;5.22;;;1.60;;
27833;SDS011;15200;50.570;7.244;2023-08-01T12:11:39;3.58;;;1.20;;
27833;SDS011;15200;50.570;7.244;2023-08-01T12:14:07;3.10;;;1.57;;
27833;SDS011;15200;50.570;7.244;2023-08-01T12:16:36;2.37;;;1.27;;
27833;SDS011;15200;50.570;7.244;2023-08-01T12:19:04;4.60;;;1.67;;
27833;SDS011;15200;50.570;7.244;2023-08-01T12:21:32;3.12;;;1.60;;
27833;SDS011;15200;50.570;7.244;2023-08-01T12:23:59;4.65;;;1.42;;
27833;SDS011;15200;50.570;7.244;2023-08-01T12:26:26;2.02;;;1.27;;
27833;SDS011;15200;50.570;7.244;2023-08-01T12:28:54;2.08;;;1.22;;
27833;SDS011;15200;50.570;7.244;2023-08-01T12:31:22;2.42;;;1.20;;
27833;SDS011;15200;50.570;7.244;2023-08-01T12:33:49;3.30;;;1.25;;
27833;SDS011;15200;50.570;7.244;2023-08-01T12:36:18;3.08;;;1.12;;
27833;SDS011;15200;50.570;7.244;2023-08-01T12:38:45;2.55;;;1.00;;
27833;SDS011;15200;50.570;7.244;2023-08-01T12:41:12;1.65;;;1.10;;
27833;SDS011;15200;50.570;7.244;2023-08-01T12:43:40;0.78;;;0.70;;
27833;SDS011;15200;50.570;7.244;2023-08-01T12:46:07;1.85;;;0.75;;
27833;SDS011;15200;50.570;7.244;2023-08-01T12:48:34;2.58;;;0.70;;
27833;SDS011;15200;50.570;7.244;2023-08-01T12:51:02;1.45;;;0.75;;
27833;SDS011;15200;50.570;7.244;2023-08-01T12:53:29;2.25;;;0.82;;
27833;SDS011;15200;50.570;7.244;2023-08-01T12:55:56;1.60;;;0.82;;
27833;SDS011;15200;50.570;7.244;2023-08-01T12:58:24;4.62;;;0.80;;
27833;SDS011;15200;50.570;7.244;2023-08-01T13:00:51;4.37;;;1.25;;
27833;SDS011;15200;50.570;7.244;2023-08-01T13:03:18;1.30;;;0.62;;
27833;SDS011;15200;50.570;7.244;2023-08-01T13:05:46;1.12;;;0.82;;
27833;SDS011;15200;50.570;7.244;2023-08-01T13:08:13;2.52;;;1.00;;
27833;SDS011;15200;50.570;7.244;2023-08-01T13:10:40;2.45;;;1.07;;
27833;SDS011;15200;50.570;7.244;2023-08-01T13:13:08;1.45;;;0.72;;
27833;SDS011;15200;50.570;7.244;2023-08-01T13:15:35;1.47;;;0.78;;
27833;SDS011;15200;50.570;7.244;2023-08-01T13:18:02;3.37;;;1.30;;
27833;SDS011;15200;50.570;7.244;2023-08-01T13:20:30;3.30;;;1.17;;
27833;SDS011;15200;50.570;7.244;2023-08-01T13:22:57;2.90;;;1.47;;
27833;SDS011;15200;50.570;7.244;2023-08-01T13:25:24;2.75;;;1.00;;
27833;SDS011;15200;50.570;7.244;2023-08-01T13:27:52;3.00;;;1.20;;
27833;SDS011;15200;50.570;7.244;2023-08-01T13:30:19;2.70;;;1.10;;
27833;SDS011;15200;50.570;7.244;2023-08-01T13:32:47;3.85;;;1.05;;
27833;SDS011;15200;50.570;7.244;2023-08-01T13:35:14;3.80;;;1.22;;
27833;SDS011;15200;50.570;7.244;2023-08-01T13:37:41;1.95;;;1.05;;
27833;SDS011;15200;50.570;7.244;2023-08-01T13:40:09;1.75;;;0.70;;
27833;SDS011;15200;50.570;7.244;2023-08-01T13:42:38;1.32;;;0.72;;
27833;SDS011;15200;50.570;7.244;2023-08-01T13:45:05;1.67;;;0.70;;
27833;SDS011;15200;50.570;7.244;2023-08-01T13:47:33;1.85;;;0.90;;
27833;SDS011;15200;50.570;7.244;2023-08-01T13:50:00;1.70;;;0.88;;
27833;SDS011;15200;50.570;7.244;2023-08-01T13:52:28;1.82;;;0.70;;
27833;SDS011;15200;50.570;7.244;2023-08-01T13:54:55;2.72;;;0.88;;
27833;SDS011;15200;50.570;7.244;2023-08-01T13:57:22;2.95;;;0.90;;
27833;SDS011;15200;50.570;7.244;2023-08-01T13:59:52;2.25;;;0.82;;
27833;SDS011;15200;50.570;7.244;2023-08-01T14:02:20;2.98;;;0.88;;
27833;SDS011;15200;50.570;7.244;2023-08-01T14:04:50;1.67;;;0.88;;
27833;SDS011;15200;50.570;7.244;2023-08-01T14:07:16;1.60;;;1.05;;
27833;SDS011;15200;50.570;7.244;2023-08-01T14:09:43;7.35;;;1.20;;
27833;SDS011;15200;50.570;7.244;2023-08-01T14:12:10;5.80;;;1.30;;
27833;SDS011;15200;50.570;7.244;2023-08-01T14:14:38;1.80;;;0.88;;
27833;SDS011;15200;50.570;7.244;2023-08-01T14:17:05;2.50;;;1.10;;
27833;SDS011;15200;50.570;7.244;2023-08-01T14:19:32;2.58;;;1.10;;
27833;SDS011;15200;50.570;7.244;2023-08-01T14:22:00;5.05;;;1.57;;
27833;SDS011;15200;50.570;7.244;2023-08-01T14:24:27;2.42;;;0.95;;
27833;SDS011;15200;50.570;7.244;2023-08-01T14:26:54;2.12;;;1.10;;
27833;SDS011;15200;50.570;7.244;2023-08-01T14:29:22;5.95;;;1.00;;
27833;SDS011;15200;50.570;7.244;2023-08-01T14:31:49;2.20;;;0.78;;
27833;SDS011;15200;50.570;7.244;2023-08-01T14:34:17;1.27;;;0.98;;
27833;SDS011;15200;50.570;7.244;2023-08-01T14:36:44;5.60;;;1.10;;
27833;SDS011;15200;50.570;7.244;2023-08-01T14:39:12;1.62;;;0.90;;
27833;SDS011;15200;50.570;7.244;2023-08-01T14:41:39;7.00;;;1.00;;
27833;SDS011;15200;50.570;7.244;2023-08-01T14:44:06;2.42;;;0.80;;
27833;SDS011;15200;50.570;7.244;2023-08-01T14:46:35;5.25;;;0.78;;
27833;SDS011;15200;50.570;7.244;2023-08-01T14:49:02;3.12;;;0.60;;
27833;SDS011;15200;50.570;7.244;2023-08-01T14:51:32;3.77;;;0.90;;
27833;SDS011;15200;50.570;7.244;2023-08-01T14:53:58;3.75;;;0.80;;